Time;durP1;ratioP1;P1;durP2;ratioP2;P2;SDS_P1;SDS_P2;PMS_P1;PMS_P2;Temp;Humidity;BMP_temperature;BMP_pressure;BME280_temperature;BME280_humidity;BME280_pressure;Samples;Min_cycle;Max_cycle;Signal;HPM_P1;HPM_P2
2022/10/16 00:01:25;;;;;;;12.97;9.93;;;13.60;99.90;;;;;;5033402;28;20247;-55
2022/10/16 00:03:53;;;;;;;10.47;8.83;;;13.60;99.90;;;;;;5033169;28;20626;-55
2022/10/16 00:06:22;;;;;;;14.53;9.87;;;13.60;99.90;;;;;;5030572;28;20580;-55
2022/10/16 00:08:51;;;;;;;10.17;8.60;;;13.60;99.90;;;;;;5033536;28;20229;-55
2022/10/16 00:11:23;;;;;;;11.90;8.73;;;13.50;99.90;;;;;;5033573;28;20230;-55
2022/10/16 00:13:53;;;;;;;11.57;9.07;;;13.50;99.90;;;;;;5033501;28;20729;-56
2022/10/16 00:16:21;;;;;;;10.10;8.43;;;13.50;99.90;;;;;;5033705;28;20235;-56
2022/10/16 00:18:49;;;;;;;9.53;7.33;;;13.50;99.90;;;;;;5033864;28;20238;-56
2022/10/16 00:21:19;;;;;;;9.13;7.67;;;13.50;99.90;;;;;;5033525;28;20227;-55
2022/10/16 00:23:50;;;;;;;10.50;6.30;;;13.50;99.90;;;;;;5025356;28;20229;-55
2022/10/16 00:26:19;;;;;;;7.77;6.77;;;13.60;99.90;;;;;;5022584;28;20223;-54
2022/10/16 00:28:49;;;;;;;9.33;6.67;;;13.60;99.90;;;;;;5035886;28;20679;-55
2022/10/16 00:31:20;;;;;;;8.37;5.60;;;13.60;99.90;;;;;;5032812;28;20235;-55
2022/10/16 00:33:48;;;;;;;6.27;5.63;;;13.50;99.90;;;;;;5033248;28;20284;-55
2022/10/16 00:36:18;;;;;;;8.10;5.57;;;13.50;99.90;;;;;;5033289;28;20728;-55
2022/10/16 00:38:47;;;;;;;5.70;4.40;;;13.50;99.90;;;;;;5033228;28;20231;-56
2022/10/16 00:41:18;;;;;;;6.87;4.93;;;13.50;99.90;;;;;;5033299;28;20587;-55
2022/10/16 00:43:49;;;;;;;8.30;4.50;;;13.40;99.90;;;;;;5032812;28;20239;-55
2022/10/16 00:46:20;;;;;;;7.87;4.50;;;13.40;99.90;;;;;;5032593;28;20228;-55
2022/10/16 00:48:53;;;;;;;5.43;4.00;;;13.40;99.90;;;;;;5014766;28;20248;-56
2022/10/16 00:51:26;;;;;;;6.37;4.37;;;13.40;99.90;;;;;;5032752;28;20267;-55
2022/10/16 00:53:56;;;;;;;5.80;4.80;;;13.30;99.90;;;;;;5025126;28;20584;-56
2022/10/16 00:56:24;;;;;;;6.77;3.97;;;13.30;99.90;;;;;;5036820;28;20238;-55
2022/10/16 00:58:53;;;;;;;6.17;4.20;;;13.30;99.90;;;;;;5034917;28;20719;-56
2022/10/16 01:01:22;;;;;;;6.60;3.83;;;13.30;99.90;;;;;;5031752;28;20642;-55
2022/10/16 01:03:50;;;;;;;7.13;3.70;;;13.20;99.90;;;;;;5032589;28;20761;-55
2022/10/16 01:06:25;;;;;;;4.20;3.80;;;13.20;99.90;;;;;;5032791;28;20230;-55
2022/10/16 01:09:07;;;;;;;7.17;3.90;;;13.20;99.90;;;;;;5032965;28;20590;-55
2022/10/16 01:11:44;;;;;;;5.63;3.57;;;13.10;99.90;;;;;;5032482;28;20281;-55
2022/10/16 01:14:23;;;;;;;5.00;3.90;;;13.10;99.90;;;;;;5032567;28;20220;-56
2022/10/16 01:16:58;;;;;;;4.23;3.73;;;13.10;99.90;;;;;;5032921;28;20219;-55
2022/10/16 01:19:41;;;;;;;5.60;3.53;;;13.10;99.90;;;;;;5032231;28;20231;-56
2022/10/16 01:22:10;;;;;;;5.90;3.80;;;13.10;99.90;;;;;;5024479;28;20227;-55
2022/10/16 01:24:41;;;;;;;7.83;3.93;;;13.00;99.90;;;;;;5032363;28;20228;-55
2022/10/16 01:27:13;;;;;;;4.07;3.33;;;13.00;99.90;;;;;;5040451;28;20251;-55
2022/10/16 01:29:49;;;;;;;5.70;3.87;;;13.00;99.90;;;;;;5032388;28;20238;-55
2022/10/16 01:32:21;;;;;;;6.77;3.50;;;13.00;99.90;;;;;;5032123;28;20648;-55
2022/10/16 01:34:53;;;;;;;4.80;3.33;;;13.00;99.90;;;;;;5032504;28;20752;-55
2022/10/16 01:37:29;;;;;;;4.40;3.50;;;12.90;99.90;;;;;;5032314;28;20231;-54
2022/10/16 01:40:01;;;;;;;6.27;3.50;;;12.90;99.90;;;;;;5032432;28;20559;-55
2022/10/16 01:42:35;;;;;;;6.77;3.30;;;12.90;99.90;;;;;;5032505;28;20236;-55
2022/10/16 01:45:07;;;;;;;4.37;2.83;;;12.90;99.90;;;;;;5032570;28;20249;-55
2022/10/16 01:47:37;;;;;;;3.73;3.30;;;12.90;99.90;;;;;;5032448;28;20238;-55
2022/10/16 01:50:07;;;;;;;3.80;2.93;;;12.90;99.90;;;;;;5032102;28;20231;-55
2022/10/16 01:52:39;;;;;;;4.27;3.00;;;12.90;99.90;;;;;;5030342;28;20223;-55
2022/10/16 01:55:09;;;;;;;3.10;2.80;;;12.80;99.90;;;;;;5032302;28;20626;-55
2022/10/16 01:57:44;;;;;;;6.27;3.13;;;12.80;99.90;;;;;;5039836;28;20578;-55
2022/10/16 02:00:14;;;;;;;7.37;2.70;;;12.80;99.90;;;;;;5024081;28;20635;-55
2022/10/16 02:02:48;;;;;;;5.30;2.73;;;12.80;99.90;;;;;;5032013;28;20235;-55
2022/10/16 02:05:22;;;;;;;4.40;2.87;;;12.80;99.90;;;;;;5031941;28;20227;-55
2022/10/16 02:07:51;;;;;;;6.27;2.80;;;12.70;99.90;;;;;;5032302;28;20238;-55
2022/10/16 02:10:19;;;;;;;4.80;2.47;;;12.70;99.90;;;;;;5032443;28;20228;-54
2022/10/16 02:12:56;;;;;;;3.30;2.50;;;12.70;99.90;;;;;;5032102;28;20357;-55
2022/10/16 02:15:24;;;;;;;5.70;2.30;;;12.70;99.90;;;;;;5035727;28;20224;-55
2022/10/16 02:17:52;;;;;;;6.43;2.87;;;12.70;99.90;;;;;;5035985;28;20235;-55
2022/10/16 02:20:26;;;;;;;5.73;3.77;;;12.70;99.90;;;;;;5035559;28;20282;-55
2022/10/16 02:22:56;;;;;;;3.93;2.20;;;12.70;99.90;;;;;;5035252;28;20687;-55
2022/10/16 02:25:30;;;;;;;4.20;2.70;;;12.70;99.90;;;;;;5035670;28;20618;-54
2022/10/16 02:28:04;;;;;;;4.23;2.50;;;12.70;99.90;;;;;;5043699;28;20227;-55
2022/10/16 02:30:37;;;;;;;5.23;2.50;;;12.60;99.90;;;;;;5035084;28;20239;-55
2022/10/16 02:33:08;;;;;;;4.50;2.30;;;12.60;99.90;;;;;;5035733;28;20750;-55
2022/10/16 02:35:37;;;;;;;2.93;2.03;;;12.60;99.90;;;;;;5035071;28;20269;-55
2022/10/16 02:38:07;;;;;;;3.87;2.20;;;12.60;99.90;;;;;;5035573;28;20242;-54
2022/10/16 02:40:35;;;;;;;4.63;2.30;;;12.60;99.90;;;;;;5035126;28;20414;-55
2022/10/16 02:43:05;;;;;;;4.53;2.27;;;12.60;99.90;;;;;;5035484;28;20289;-55
2022/10/16 02:45:34;;;;;;;6.80;2.77;;;12.60;99.90;;;;;;5034796;28;20245;-55
2022/10/16 02:48:02;;;;;;;5.30;2.20;;;12.60;99.90;;;;;;5035181;28;20235;-55
2022/10/16 02:50:30;;;;;;;5.17;2.27;;;12.60;99.90;;;;;;5034626;28;20237;-55
2022/10/16 02:52:58;;;;;;;3.57;1.90;;;12.50;99.90;;;;;;5034988;28;20653;-55
2022/10/16 02:55:27;;;;;;;3.53;2.20;;;12.50;99.90;;;;;;5028603;28;20235;-55
2022/10/16 02:57:55;;;;;;;4.20;2.30;;;12.60;99.90;;;;;;5041000;28;20223;-55
2022/10/16 03:00:25;;;;;;;5.47;2.07;;;12.50;99.90;;;;;;5034668;28;20679;-55
2022/10/16 03:02:53;;;;;;;4.27;2.40;;;12.50;99.90;;;;;;5034806;28;20235;-55
2022/10/16 03:05:21;;;;;;;2.40;1.97;;;12.50;99.90;;;;;;5034590;28;20687;-55
2022/10/16 03:07:54;;;;;;;5.50;2.00;;;12.40;99.90;;;;;;5034604;28;20227;-55
2022/10/16 03:10:22;;;;;;;3.57;2.37;;;12.50;99.90;;;;;;5034686;28;20231;-55
2022/10/16 03:12:50;;;;;;;4.33;2.00;;;12.50;99.90;;;;;;5034944;28;20741;-55
2022/10/16 03:15:18;;;;;;;3.67;2.03;;;12.40;99.90;;;;;;5029289;28;20231;-55
2022/10/16 03:17:48;;;;;;;4.27;1.67;;;12.40;99.90;;;;;;5014627;28;20232;-55
2022/10/16 03:20:16;;;;;;;3.03;1.90;;;12.40;99.90;;;;;;5027666;28;20227;-55
2022/10/16 03:22:44;;;;;;;2.73;1.80;;;12.40;99.90;;;;;;5034250;28;20235;-54
2022/10/16 03:25:12;;;;;;;3.00;1.93;;;12.40;99.90;;;;;;5033826;28;20278;-55
2022/10/16 03:27:40;;;;;;;5.67;2.00;;;12.40;99.90;;;;;;5034354;28;20618;-55
2022/10/16 03:30:10;;;;;;;3.87;1.70;;;12.40;99.90;;;;;;5034254;28;20239;-55
2022/10/16 03:32:38;;;;;;;6.33;2.53;;;12.40;99.90;;;;;;5034161;28;20301;-55
2022/10/16 03:35:08;;;;;;;2.63;1.80;;;12.30;99.90;;;;;;5034458;28;20731;-55
2022/10/16 03:37:37;;;;;;;6.20;1.77;;;12.30;99.90;;;;;;5034001;28;20317;-54
2022/10/16 03:40:05;;;;;;;3.80;2.07;;;12.30;99.90;;;;;;5034133;28;20245;-54
2022/10/16 03:42:33;;;;;;;3.93;1.93;;;12.30;99.90;;;;;;5034253;28;20237;-55
2022/10/16 03:45:01;;;;;;;2.63;1.77;;;12.30;99.90;;;;;;5032603;28;20234;-55
2022/10/16 03:47:30;;;;;;;3.20;1.93;;;12.30;99.90;;;;;;5034136;28;20239;-55
2022/10/16 03:49:58;;;;;;;4.33;2.00;;;12.40;99.90;;;;;;5034132;28;20224;-55
2022/10/16 03:52:28;;;;;;;6.17;2.20;;;12.30;99.90;;;;;;5033905;28;20231;-54
2022/10/16 03:54:56;;;;;;;2.80;1.97;;;12.30;99.90;;;;;;5034159;28;20230;-55
2022/10/16 03:57:24;;;;;;;3.97;1.80;;;12.30;99.90;;;;;;5033642;28;20281;-54
2022/10/16 03:59:52;;;;;;;4.27;1.83;;;12.30;99.90;;;;;;5033730;28;20225;-55
2022/10/16 04:02:20;;;;;;;4.07;2.50;;;12.30;99.90;;;;;;5033286;28;20242;-55
2022/10/16 04:04:49;;;;;;;5.43;2.30;;;12.30;99.90;;;;;;5033758;28;20721;-55
2022/10/16 04:07:17;;;;;;;3.17;2.17;;;12.30;99.90;;;;;;5033768;28;20235;-55
2022/10/16 04:09:46;;;;;;;3.07;2.17;;;12.30;99.90;;;;;;5033487;28;20279;-55
2022/10/16 04:12:14;;;;;;;3.93;1.97;;;12.30;99.90;;;;;;5033844;28;20234;-55
2022/10/16 04:14:42;;;;;;;6.33;2.13;;;12.30;99.90;;;;;;5033638;28;20224;-55
2022/10/16 04:17:10;;;;;;;3.60;2.20;;;12.30;99.90;;;;;;5033066;28;20229;-55
2022/10/16 04:19:38;;;;;;;2.90;2.07;;;12.30;99.90;;;;;;5033897;28;20610;-55
2022/10/16 04:22:06;;;;;;;3.33;2.10;;;12.30;99.90;;;;;;5033531;28;20237;-55
2022/10/16 04:24:34;;;;;;;5.73;2.23;;;12.30;99.90;;;;;;5033430;28;20234;-55
2022/10/16 04:27:04;;;;;;;2.83;2.00;;;12.30;99.90;;;;;;5033404;28;20642;-55
2022/10/16 04:29:32;;;;;;;7.27;2.57;;;12.30;99.90;;;;;;5032894;28;20224;-55
2022/10/16 04:32:00;;;;;;;4.33;2.23;;;12.30;99.90;;;;;;5032928;28;20254;-54
2022/10/16 04:34:28;;;;;;;5.37;2.17;;;12.30;99.90;;;;;;5032892;28;20221;-54
2022/10/16 04:36:56;;;;;;;3.13;2.30;;;12.30;99.90;;;;;;5033083;28;20579;-54
2022/10/16 04:39:24;;;;;;;3.13;2.17;;;12.30;99.90;;;;;;5033252;28;20235;-55
2022/10/16 04:41:52;;;;;;;4.13;2.40;;;12.30;99.90;;;;;;5033354;28;20683;-55
2022/10/16 04:44:22;;;;;;;3.80;2.10;;;12.30;99.90;;;;;;5032789;28;20235;-55
2022/10/16 04:46:51;;;;;;;4.00;2.50;;;12.30;99.90;;;;;;5030882;28;20246;-55
2022/10/16 04:49:19;;;;;;;3.77;2.30;;;12.30;99.90;;;;;;5032864;28;20227;-55
2022/10/16 04:51:47;;;;;;;4.87;2.50;;;12.30;99.90;;;;;;5032626;28;20235;-55
2022/10/16 04:54:15;;;;;;;4.17;2.70;;;12.30;99.90;;;;;;5032705;28;20254;-55
2022/10/16 04:56:47;;;;;;;4.27;2.50;;;12.30;99.90;;;;;;5031680;28;20410;-55
2022/10/16 04:59:15;;;;;;;4.47;2.90;;;12.40;99.90;;;;;;5025311;28;20235;-54
2022/10/16 05:01:44;;;;;;;5.83;2.77;;;12.40;99.90;;;;;;5032189;28;20289;-55
2022/10/16 05:04:14;;;;;;;5.50;3.00;;;12.50;99.90;;;;;;5032842;28;20231;-55
2022/10/16 05:06:43;;;;;;;5.27;3.27;;;12.50;99.90;;;;;;5032742;28;20296;-55
2022/10/16 05:09:11;;;;;;;4.67;3.20;;;12.50;99.90;;;;;;5032544;28;20236;-55
2022/10/16 05:11:39;;;;;;;6.20;3.30;;;12.50;99.90;;;;;;5032756;28;20278;-55
2022/10/16 05:14:07;;;;;;;5.97;3.67;;;12.50;99.90;;;;;;5032883;28;20238;-55
2022/10/16 05:16:35;;;;;;;7.60;4.20;;;12.40;99.90;;;;;;5032702;28;20589;-55
2022/10/16 05:19:05;;;;;;;5.37;3.80;;;12.40;99.90;;;;;;5033194;28;20619;-55
2022/10/16 05:21:53;;;;;;;6.13;4.30;;;12.40;99.90;;;;;;5032431;28;20278;-55
2022/10/16 05:24:21;;;;;;;7.00;4.30;;;12.50;99.90;;;;;;5032460;28;20257;-54
2022/10/16 05:26:49;;;;;;;5.87;4.93;;;12.50;99.90;;;;;;5032566;28;20226;-55
2022/10/16 05:29:17;;;;;;;6.53;4.30;;;12.50;99.90;;;;;;5032384;28;20314;-55
2022/10/16 05:31:45;;;;;;;5.97;4.77;;;12.50;99.90;;;;;;5031786;28;20246;-55
2022/10/16 05:34:14;;;;;;;8.80;4.57;;;12.50;99.90;;;;;;5032758;28;20582;-55
2022/10/16 05:36:45;;;;;;;5.90;4.50;;;12.50;99.90;;;;;;5032127;28;20231;-55
2022/10/16 05:39:14;;;;;;;8.80;5.37;;;12.60;99.90;;;;;;5032511;28;20687;-55
2022/10/16 05:41:42;;;;;;;7.37;5.50;;;12.60;99.90;;;;;;5032550;28;20227;-54
2022/10/16 05:44:11;;;;;;;9.30;6.30;;;12.60;99.90;;;;;;5032663;28;20751;-54
2022/10/16 05:46:39;;;;;;;8.40;6.10;;;12.60;99.90;;;;;;5032024;28;20228;-54
2022/10/16 05:49:07;;;;;;;7.93;5.90;;;12.60;99.90;;;;;;5035291;28;20230;-55
2022/10/16 05:51:36;;;;;;;10.03;6.40;;;12.60;99.90;;;;;;5036186;28;20234;-55
2022/10/16 05:54:04;;;;;;;10.43;6.27;;;12.60;99.90;;;;;;5036008;28;20242;-55
2022/10/16 05:56:32;;;;;;;8.43;6.27;;;12.60;99.90;;;;;;5036152;28;20263;-55
2022/10/16 05:59:00;;;;;;;9.33;6.70;;;12.60;99.90;;;;;;5035987;28;20228;-55
2022/10/16 06:01:28;;;;;;;11.13;6.73;;;12.60;99.90;;;;;;5023923;28;20232;-54
2022/10/16 06:03:56;;;;;;;8.07;6.73;;;12.60;99.90;;;;;;5026534;28;20308;-55
2022/10/16 06:06:26;;;;;;;8.70;5.87;;;12.60;99.90;;;;;;5024750;28;20710;-54
2022/10/16 06:08:59;;;;;;;11.17;7.10;;;12.60;99.90;;;;;;5027094;28;20224;-55
2022/10/16 06:11:29;;;;;;;8.50;6.90;;;12.60;99.90;;;;;;5026683;28;20231;-55
2022/10/16 06:14:01;;;;;;;11.23;6.80;;;12.60;99.90;;;;;;5025327;28;20228;-55
2022/10/16 06:16:30;;;;;;;11.00;6.80;;;12.60;99.90;;;;;;5024290;28;20221;-54
2022/10/16 06:18:59;;;;;;;9.40;6.63;;;12.60;99.90;;;;;;5026182;28;20674;-55
2022/10/16 06:21:28;;;;;;;10.77;7.27;;;12.70;99.90;;;;;;5026752;28;20232;-53
2022/10/16 06:23:58;;;;;;;9.20;7.17;;;12.70;99.90;;;;;;5026433;28;20237;-55
2022/10/16 06:26:28;;;;;;;10.80;6.97;;;12.60;99.90;;;;;;5027209;28;20242;-55
2022/10/16 06:28:58;;;;;;;8.63;7.20;;;12.60;99.90;;;;;;5023526;28;20725;-55
2022/10/16 06:31:30;;;;;;;9.37;7.23;;;12.70;99.90;;;;;;5035088;28;20233;-55
2022/10/16 06:33:58;;;;;;;9.27;7.10;;;12.70;99.90;;;;;;5035497;28;20230;-55
2022/10/16 06:36:27;;;;;;;9.17;7.53;;;12.70;99.90;;;;;;5034850;28;20249;-54
2022/10/16 06:38:55;;;;;;;9.73;7.33;;;12.70;99.90;;;;;;5031538;28;20220;-55
2022/10/16 06:41:25;;;;;;;13.27;9.40;;;12.80;99.90;;;;;;5034904;28;20224;-55
2022/10/16 06:43:53;;;;;;;10.37;8.00;;;12.80;99.90;;;;;;5035575;28;20623;-55
2022/10/16 06:46:23;;;;;;;11.37;8.07;;;12.90;99.90;;;;;;5035230;28;20231;-55
2022/10/16 06:48:51;;;;;;;9.97;8.20;;;13.00;99.90;;;;;;5029325;28;20282;-55
2022/10/16 06:51:21;;;;;;;13.40;8.97;;;13.00;99.90;;;;;;5027382;28;20288;-55
2022/10/16 06:53:51;;;;;;;17.20;11.00;;;13.00;99.90;;;;;;5029613;28;20235;-55
2022/10/16 06:56:37;;;;;;;12.17;9.60;;;13.00;99.90;;;;;;5022929;28;20252;-55
2022/10/16 06:59:05;;;;;;;15.10;10.27;;;13.00;99.90;;;;;;5034719;28;20219;-55
2022/10/16 07:01:33;;;;;;;12.93;8.53;;;13.00;99.90;;;;;;5034431;28;20239;-55
2022/10/16 07:04:03;;;;;;;9.40;8.40;;;13.00;99.90;;;;;;5034893;28;20232;-55
2022/10/16 07:06:33;;;;;;;9.83;7.43;;;13.00;99.90;;;;;;5034672;28;20229;-55
2022/10/16 07:09:04;;;;;;;10.57;8.30;;;13.10;99.90;;;;;;5029081;28;20692;-55
2022/10/16 07:11:33;;;;;;;11.93;7.80;;;13.20;99.90;;;;;;5023515;28;20224;-53
2022/10/16 07:14:03;;;;;;;9.37;7.53;;;13.40;99.90;;;;;;5022107;28;20224;-55
2022/10/16 07:16:33;;;;;;;13.30;7.53;;;13.50;99.90;;;;;;5032563;28;20239;-55
2022/10/16 07:19:03;;;;;;;10.80;6.93;;;13.60;99.90;;;;;;5034889;28;20245;-54
2022/10/16 07:21:35;;;;;;;10.07;6.83;;;13.70;99.90;;;;;;5034524;28;20235;-55
2022/10/16 07:24:05;;;;;;;10.63;6.33;;;13.80;99.90;;;;;;5034790;28;20323;-55
2022/10/16 07:26:36;;;;;;;10.53;6.90;;;14.00;99.90;;;;;;5018294;28;20252;-54
2022/10/16 07:29:06;;;;;;;8.60;7.20;;;14.00;99.90;;;;;;5028635;28;20729;-55
2022/10/16 07:31:34;;;;;;;8.43;7.07;;;14.00;99.90;;;;;;5033954;28;20251;-55
2022/10/16 07:34:02;;;;;;;9.93;7.17;;;14.20;99.90;;;;;;5027585;28;20239;-55
2022/10/16 07:36:30;;;;;;;10.23;6.73;;;14.20;99.90;;;;;;5034428;28;20239;-55
2022/10/16 07:38:58;;;;;;;8.17;6.23;;;14.30;99.90;;;;;;5034506;28;20231;-55
2022/10/16 07:41:28;;;;;;;10.47;6.47;;;14.30;99.90;;;;;;5024291;28;20242;-54
2022/10/16 07:43:59;;;;;;;8.13;6.27;;;14.20;99.90;;;;;;5034119;28;20730;-55
2022/10/16 07:46:29;;;;;;;8.83;7.00;;;14.20;99.90;;;;;;5033412;28;20261;-55
2022/10/16 07:48:57;;;;;;;9.37;6.53;;;14.20;99.90;;;;;;5034379;28;20239;-55
2022/10/16 07:51:26;;;;;;;7.30;6.50;;;14.10;99.90;;;;;;5033965;28;20702;-55
2022/10/16 07:53:55;;;;;;;9.33;6.47;;;14.20;99.90;;;;;;5033930;28;20224;-55
2022/10/16 07:56:23;;;;;;;8.37;6.93;;;14.20;99.90;;;;;;5037281;28;20240;-55
2022/10/16 07:58:52;;;;;;;7.23;6.50;;;14.20;99.90;;;;;;5028683;28;20255;-55
2022/10/16 08:01:21;;;;;;;9.90;7.07;;;14.20;99.90;;;;;;5033277;28;20320;-55
2022/10/16 08:03:52;;;;;;;7.70;6.83;;;14.20;99.90;;;;;;5033607;28;20238;-54
2022/10/16 08:06:21;;;;;;;7.97;6.57;;;14.60;99.90;;;;;;5033955;28;20227;-55
2022/10/16 08:08:55;;;;;;;6.73;5.83;;;14.90;99.90;;;;;;5033733;28;20334;-55
2022/10/16 08:11:24;;;;;;;8.53;5.90;;;14.90;99.90;;;;;;5033355;28;20581;-56
2022/10/16 08:13:52;;;;;;;6.63;5.80;;;14.90;99.90;;;;;;5031859;28;20224;-55
2022/10/16 08:16:20;;;;;;;7.70;5.77;;;15.00;99.90;;;;;;5033615;28;20702;-55
2022/10/16 08:18:51;;;;;;;6.13;5.27;;;15.30;99.90;;;;;;5033777;28;20221;-55
2022/10/16 08:21:21;;;;;;;7.47;5.60;;;15.50;99.90;;;;;;5031532;28;20230;-55
2022/10/16 08:23:50;;;;;;;7.23;5.17;;;15.60;99.90;;;;;;5032992;28;20295;-54
2022/10/16 08:26:24;;;;;;;7.10;5.33;;;15.80;99.90;;;;;;5024835;28;20238;-55
2022/10/16 08:28:52;;;;;;;7.23;4.50;;;15.80;99.90;;;;;;5035328;28;20225;-55
2022/10/16 08:31:20;;;;;;;7.27;5.43;;;15.80;99.90;;;;;;5032849;28;20246;-54
2022/10/16 08:33:52;;;;;;;6.97;4.50;;;15.70;99.90;;;;;;5033340;28;20224;-55
2022/10/16 08:36:20;;;;;;;6.77;4.70;;;15.70;99.90;;;;;;5030150;28;20270;-55
2022/10/16 08:38:50;;;;;;;6.47;4.67;;;15.70;99.90;;;;;;5033202;28;20231;-53
2022/10/16 08:41:56;;;;;;;8.00;4.60;;;15.80;99.90;;;;;;5033341;28;20698;-55
2022/10/16 08:44:45;;;;;;;7.63;4.70;;;15.90;99.90;;;;;;5032941;28;20595;-54
2022/10/16 08:47:18;;;;;;;4.73;4.33;;;16.10;99.90;;;;;;5030848;28;20232;-55
2022/10/16 08:49:56;;;;;;;6.40;4.80;;;16.40;99.90;;;;;;5032993;28;20244;-54
2022/10/16 08:52:30;;;;;;;9.50;4.87;;;16.40;99.90;;;;;;5032713;28;20738;-54
2022/10/16 08:54:58;;;;;;;6.80;4.30;;;16.50;99.90;;;;;;5023850;28;20249;-55
2022/10/16 08:57:27;;;;;;;5.40;3.67;;;16.70;99.90;;;;;;5028638;28;20244;-55
2022/10/16 09:00:00;;;;;;;6.07;3.93;;;16.90;99.90;;;;;;5032981;28;20699;-55
2022/10/16 09:02:33;;;;;;;5.23;4.10;;;17.00;99.90;;;;;;5031751;28;20235;-55
2022/10/16 09:05:25;;;;;;;6.40;4.10;;;17.00;99.90;;;;;;5033035;28;20233;-55
2022/10/16 09:08:02;;;;;;;6.07;3.90;;;17.20;99.90;;;;;;5032719;28;20229;-55
2022/10/16 09:10:44;;;;;;;5.90;3.63;;;17.20;99.90;;;;;;5032451;28;20321;-55
2022/10/16 09:13:22;;;;;;;6.23;3.70;;;17.20;99.90;;;;;;5032682;28;20237;-55
2022/10/16 09:15:56;;;;;;;4.77;3.33;;;17.50;99.90;;;;;;5032628;28;20223;-55
2022/10/16 09:18:30;;;;;;;8.30;3.57;;;17.60;99.90;;;;;;5032187;28;20227;-55
2022/10/16 09:21:09;;;;;;;4.93;3.27;;;17.30;99.90;;;;;;5033060;28;20314;-55
2022/10/16 09:23:38;;;;;;;3.70;3.10;;;17.10;99.90;;;;;;5033334;28;20220;-54
2022/10/16 09:26:12;;;;;;;6.90;3.33;;;17.10;99.90;;;;;;5039230;28;20234;-55
2022/10/16 09:28:41;;;;;;;6.13;2.60;;;17.20;99.90;;;;;;5040602;28;20225;-55
2022/10/16 09:31:17;;;;;;;4.13;3.03;;;17.40;99.90;;;;;;5016414;28;20280;-55
2022/10/16 09:33:49;;;;;;;6.70;3.13;;;17.50;99.90;;;;;;5025408;28;20235;-55
2022/10/16 09:36:20;;;;;;;5.77;3.40;;;17.60;99.90;;;;;;5036595;28;20220;-55
2022/10/16 09:38:49;;;;;;;6.23;3.17;;;17.70;99.90;;;;;;5036193;28;20626;-55
2022/10/16 09:41:25;;;;;;;5.20;3.03;;;17.80;99.90;;;;;;5036439;28;20220;-55
2022/10/16 09:43:55;;;;;;;5.87;3.10;;;17.80;99.90;;;;;;5036695;28;20695;-55
2022/10/16 09:46:27;;;;;;;8.37;2.97;;;17.80;99.90;;;;;;5036532;28;20220;-55
2022/10/16 09:48:58;;;;;;;5.57;2.77;;;17.90;99.90;;;;;;5036838;28;20224;-55
2022/10/16 09:51:29;;;;;;;3.53;2.63;;;18.00;99.90;;;;;;5035016;28;20696;-53
2022/10/16 09:54:00;;;;;;;3.70;2.80;;;17.90;99.90;;;;;;5035851;28;20280;-55
2022/10/16 09:56:30;;;;;;;4.93;2.90;;;17.90;99.90;;;;;;5035774;28;20259;-55
2022/10/16 09:59:00;;;;;;;3.80;2.53;;;17.80;99.90;;;;;;5036399;28;20230;-54
2022/10/16 10:01:32;;;;;;;5.70;2.60;;;17.70;99.90;;;;;;5035708;28;20290;-55
2022/10/16 10:04:03;;;;;;;4.33;2.53;;;17.80;99.90;;;;;;5035893;28;20234;-55
2022/10/16 10:06:37;;;;;;;2.93;2.17;;;17.90;99.90;;;;;;5035891;28;20220;-55
2022/10/16 10:09:16;;;;;;;5.70;2.70;;;18.00;99.90;;;;;;5035717;28;20232;-55
2022/10/16 10:11:53;;;;;;;8.27;3.33;;;18.00;99.90;;;;;;5027222;28;20229;-54
2022/10/16 10:14:24;;;;;;;5.60;2.50;;;17.90;99.90;;;;;;5024985;28;20630;-55
2022/10/16 10:16:53;;;;;;;4.53;2.20;;;17.80;99.90;;;;;;5030044;28;20213;-55
2022/10/16 10:19:23;;;;;;;7.53;2.53;;;17.80;99.90;;;;;;5035063;28;20580;-55
2022/10/16 10:21:59;;;;;;;6.03;2.20;;;17.70;99.90;;;;;;5034743;28;20308;-55
2022/10/16 10:24:27;;;;;;;4.43;2.10;;;17.80;99.90;;;;;;5035076;28;20275;-55
2022/10/16 10:27:03;;;;;;;6.37;2.10;;;17.80;99.90;;;;;;5035484;28;20711;-55
2022/10/16 10:29:45;;;;;;;5.17;2.10;;;17.70;99.90;;;;;;5026397;28;20228;-55
2022/10/16 10:32:23;;;;;;;6.53;2.03;;;17.70;99.90;;;;;;5025859;28;20735;-55
2022/10/16 10:35:08;;;;;;;3.63;1.70;;;17.60;99.90;;;;;;5028455;28;20260;-55
2022/10/16 10:37:55;;;;;;;4.73;1.80;;;17.50;99.90;;;;;;5032398;28;20236;-55
2022/10/16 10:40:34;;;;;;;4.30;1.70;;;17.70;99.90;;;;;;5030169;28;20225;-55
2022/10/16 10:43:11;;;;;;;2.70;1.47;;;18.10;99.90;;;;;;5023986;28;20581;-56
2022/10/16 10:45:44;;;;;;;5.77;1.47;;;18.40;99.90;;;;;;5035500;28;20704;-55
2022/10/16 10:48:43;;;;;;;5.83;1.63;;;18.60;99.90;;;;;;5034663;28;20233;-55
2022/10/16 10:51:15;;;;;;;2.80;1.30;;;18.70;99.90;;;;;;5025230;28;20288;-55
2022/10/16 10:53:50;;;;;;;4.43;1.67;;;18.80;99.90;;;;;;5035057;28;20230;-55
2022/10/16 10:56:36;;;;;;;4.37;1.37;;;18.90;99.90;;;;;;5023761;28;20240;-55
2022/10/16 10:59:24;;;;;;;7.10;2.20;;;18.90;99.90;;;;;;5027228;28;20243;-54
2022/10/16 11:01:57;;;;;;;2.20;1.20;;;19.10;99.90;;;;;;5026299;28;20229;-55
2022/10/16 11:04:48;;;;;;;6.10;1.30;;;19.20;99.90;;;;;;5030811;28;20700;-55
2022/10/16 11:07:21;;;;;;;2.40;1.23;;;18.90;99.90;;;;;;5035042;28;20239;-55
2022/10/16 11:09:54;;;;;;;2.67;0.97;;;18.60;99.90;;;;;;5031796;28;20236;-55
2022/10/16 11:12:26;;;;;;;5.53;1.33;;;18.30;99.90;;;;;;5025442;28;20237;-55
2022/10/16 11:15:01;;;;;;;3.87;1.33;;;18.30;99.90;;;;;;5026294;28;20226;-54
2022/10/16 11:17:34;;;;;;;2.97;1.27;;;18.20;99.90;;;;;;5034085;28;20229;-55
2022/10/16 11:20:13;;;;;;;2.40;1.30;;;18.30;99.90;;;;;;5034465;28;20235;-55
2022/10/16 11:22:45;;;;;;;3.30;1.30;;;18.60;99.90;;;;;;5032289;28;20228;-55
2022/10/16 11:25:21;;;;;;;3.33;1.17;;;18.80;99.90;;;;;;5034823;28;20686;-55
2022/10/16 11:27:55;;;;;;;2.77;1.00;;;19.30;99.90;;;;;;5034333;28;20275;-55
2022/10/16 11:30:26;;;;;;;3.40;1.07;;;19.20;99.90;;;;;;5034149;28;20233;-55
2022/10/16 11:33:15;;;;;;;3.17;1.10;;;18.80;99.90;;;;;;5034383;28;20226;-55
2022/10/16 11:35:48;;;;;;;2.63;1.13;;;18.70;99.90;;;;;;5034202;28;20711;-55
2022/10/16 11:38:25;;;;;;;4.17;1.20;;;18.80;99.90;;;;;;5021855;28;20713;-55
2022/10/16 11:41:00;;;;;;;2.77;0.97;;;18.80;99.90;;;;;;5034205;28;20235;-55
2022/10/16 11:43:33;;;;;;;1.93;0.80;;;19.10;99.90;;;;;;5033403;28;20237;-54
2022/10/16 11:46:09;;;;;;;2.67;1.10;;;19.30;99.90;;;;;;5033181;28;20585;-55
2022/10/16 11:48:42;;;;;;;4.77;1.43;;;19.40;99.90;;;;;;5033549;28;20225;-55
2022/10/16 11:51:20;;;;;;;3.63;1.30;;;19.40;99.90;;;;;;5025820;28;20232;-55
2022/10/16 11:53:56;;;;;;;5.20;1.20;;;19.20;99.90;;;;;;5034016;28;20242;-55
2022/10/16 11:56:25;;;;;;;4.40;1.20;;;19.10;99.90;;;;;;5025027;28;20609;-53
2022/10/16 11:59:00;;;;;;;3.33;1.00;;;19.10;99.90;;;;;;5026980;28;20284;-55
2022/10/16 12:01:34;;;;;;;3.40;1.00;;;18.90;99.90;;;;;;5021659;28;20231;-53
2022/10/16 12:04:20;;;;;;;5.70;1.23;;;18.90;99.90;;;;;;5033933;28;20692;-55
2022/10/16 12:06:52;;;;;;;3.43;0.90;;;18.80;99.90;;;;;;5025528;28;20238;-55
2022/10/16 12:09:25;;;;;;;5.53;1.20;;;18.60;99.90;;;;;;5023855;28;20229;-54
2022/10/16 12:11:55;;;;;;;3.73;1.20;;;18.30;99.90;;;;;;5024333;28;20233;-55
2022/10/16 12:14:36;;;;;;;3.57;1.30;;;18.20;99.90;;;;;;5023794;28;20226;-55
2022/10/16 12:17:27;;;;;;;4.57;1.20;;;18.10;99.90;;;;;;5024129;28;20276;-55
2022/10/16 12:20:00;;;;;;;3.00;1.17;;;18.00;99.90;;;;;;5025982;28;20236;-55
2022/10/16 12:22:30;;;;;;;4.70;1.60;;;18.00;99.90;;;;;;5024696;28;20233;-54
2022/10/16 12:24:59;;;;;;;3.57;1.10;;;18.00;99.90;;;;;;5023950;28;20272;-55
2022/10/16 12:27:31;;;;;;;4.27;1.40;;;17.90;99.90;;;;;;5026347;28;20253;-55
2022/10/16 12:30:01;;;;;;;3.40;1.17;;;17.80;99.90;;;;;;5029181;28;20226;-55
2022/10/16 12:32:32;;;;;;;4.90;1.20;;;17.80;99.90;;;;;;5022727;28;20751;-55
2022/10/16 12:35:21;;;;;;;3.77;1.20;;;17.90;99.90;;;;;;5023078;28;20222;-55
2022/10/16 12:37:49;;;;;;;5.10;1.33;;;18.00;99.90;;;;;;5021979;28;20237;-55
2022/10/16 12:40:27;;;;;;;4.87;1.20;;;18.10;99.90;;;;;;5022362;28;20691;-55
2022/10/16 12:42:57;;;;;;;8.03;1.87;;;18.20;99.90;;;;;;5024144;28;20235;-55
2022/10/16 12:45:30;;;;;;;6.53;1.40;;;18.20;99.90;;;;;;5023675;28;20225;-54
2022/10/16 12:48:00;;;;;;;4.37;1.40;;;18.20;99.90;;;;;;5025067;28;20231;-55
2022/10/16 12:50:32;;;;;;;4.33;1.63;;;18.20;99.90;;;;;;5023475;28;20234;-54
2022/10/16 12:53:01;;;;;;;3.23;1.43;;;18.10;99.90;;;;;;5027125;28;20221;-55
2022/10/16 12:55:36;;;;;;;4.47;1.40;;;18.00;99.90;;;;;;5021201;28;20224;-54
2022/10/16 12:58:21;;;;;;;4.93;1.30;;;18.00;99.90;;;;;;5021975;28;20233;-55
2022/10/16 13:00:57;;;;;;;4.40;1.50;;;18.20;99.90;;;;;;5021527;28;20700;-54
2022/10/16 13:03:40;;;;;;;5.47;1.33;;;18.20;99.90;;;;;;5022618;28;20228;-54
2022/10/16 13:06:18;;;;;;;4.40;1.47;;;18.30;99.90;;;;;;5023830;28;20244;-55
2022/10/16 13:09:08;;;;;;;6.20;1.50;;;18.40;99.90;;;;;;5024487;28;20685;-55